sensor_id;sensor_type;location;lat;lon;timestamp;pressure;altitude;pressure_sealevel;temperature;humidity
5522;BME280;2783;48.730;8.006;2023-02-28T00:00:03;100878.13;;;1.76;63.51
5522;BME280;2783;48.730;8.006;2023-02-28T00:02:34;100870.19;;;1.71;64.43
5522;BME280;2783;48.730;8.006;2023-02-28T00:05:00;100884.16;;;1.70;63.84
5522;BME280;2783;48.730;8.006;2023-02-28T00:07:28;100881.53;;;1.72;63.99
5522;BME280;2783;48.730;8.006;2023-02-28T00:09:54;100876.22;;;1.66;64.27
5522;BME280;2783;48.730;8.006;2023-02-28T00:12:19;100884.06;;;1.64;64.13
5522;BME280;2783;48.730;8.006;2023-02-28T00:14:44;100884.00;;;1.61;65.66
5522;BME280;2783;48.730;8.006;2023-02-28T00:17:09;100882.28;;;1.63;65.86
5522;BME280;2783;48.730;8.006;2023-02-28T00:19:35;100881.28;;;1.57;65.59
5522;BME280;2783;48.730;8.006;2023-02-28T00:22:00;100879.44;;;1.50;66.93
5522;BME280;2783;48.730;8.006;2023-02-28T00:24:25;100882.09;;;1.51;66.47
5522;BME280;2783;48.730;8.006;2023-02-28T00:26:50;100882.09;;;1.51;66.99
5522;BME280;2783;48.730;8.006;2023-02-28T00:29:16;100887.28;;;1.48;66.13
5522;BME280;2783;48.730;8.006;2023-02-28T00:31:41;100883.84;;;1.52;66.25
5522;BME280;2783;48.730;8.006;2023-02-28T00:34:06;100883.78;;;1.49;67.07
5522;BME280;2783;48.730;8.006;2023-02-28T00:36:31;100887.25;;;1.47;68.11
5522;BME280;2783;48.730;8.006;2023-02-28T00:38:57;100880.16;;;1.41;67.33
5522;BME280;2783;48.730;8.006;2023-02-28T00:41:22;100881.94;;;1.45;67.40
5522;BME280;2783;48.730;8.006;2023-02-28T00:43:47;100883.78;;;1.49;68.42
5522;BME280;2783;48.730;8.006;2023-02-28T00:46:12;100882.81;;;1.44;67.45
5522;BME280;2783;48.730;8.006;2023-02-28T00:48:38;100874.16;;;1.48;67.67
5522;BME280;2783;48.730;8.006;2023-02-28T00:51:03;100878.50;;;1.46;67.35
5522;BME280;2783;48.730;8.006;2023-02-28T00:53:28;100883.69;;;1.43;69.04
5522;BME280;2783;48.730;8.006;2023-02-28T00:55:54;100876.66;;;1.42;68.32
5522;BME280;2783;48.730;8.006;2023-02-28T00:58:19;100885.41;;;1.41;68.89
5522;BME280;2783;48.730;8.006;2023-02-28T01:00:44;100878.38;;;1.40;69.38
5522;BME280;2783;48.730;8.006;2023-02-28T01:03:14;100880.16;;;1.41;69.31
5522;BME280;2783;48.730;8.006;2023-02-28T01:05:42;100878.34;;;1.38;68.74
5522;BME280;2783;48.730;8.006;2023-02-28T01:08:07;100877.44;;;1.35;69.41
5522;BME280;2783;48.730;8.006;2023-02-28T01:10:33;100879.91;;;1.29;69.22
5522;BME280;2783;48.730;8.006;2023-02-28T01:12:58;100884.31;;;1.30;69.97
5522;BME280;2783;48.730;8.006;2023-02-28T01:15:24;100888.75;;;1.34;69.30
5522;BME280;2783;48.730;8.006;2023-02-28T01:17:49;100879.13;;;1.33;69.46
5522;BME280;2783;48.730;8.006;2023-02-28T01:20:14;100887.00;;;1.33;69.46
5522;BME280;2783;48.730;8.006;2023-02-28T01:22:39;100891.31;;;1.31;68.78
5522;BME280;2783;48.730;8.006;2023-02-28T01:25:05;100887.00;;;1.33;70.09
5522;BME280;2783;48.730;8.006;2023-02-28T01:27:30;100885.22;;;1.32;69.66
5522;BME280;2783;48.730;8.006;2023-02-28T01:29:55;100887.84;;;1.32;69.16
5522;BME280;2783;48.730;8.006;2023-02-28T01:32:21;100892.34;;;1.39;69.96
5522;BME280;2783;48.730;8.006;2023-02-28T01:34:46;100894.84;;;1.33;69.86
5522;BME280;2783;48.730;8.006;2023-02-28T01:37:11;100888.66;;;1.28;70.47
5522;BME280;2783;48.730;8.006;2023-02-28T01:39:36;100896.50;;;1.28;70.09
5522;BME280;2783;48.730;8.006;2023-02-28T01:42:02;100893.94;;;1.31;70.06
5522;BME280;2783;48.730;8.006;2023-02-28T01:47:11;100899.13;;;1.28;69.35
5522;BME280;2783;48.730;8.006;2023-02-28T01:49:37;100888.66;;;1.28;69.73
5522;BME280;2783;48.730;8.006;2023-02-28T01:52:02;100897.28;;;1.24;69.54
5522;BME280;2783;48.730;8.006;2023-02-28T01:54:31;100905.22;;;1.27;69.67
5522;BME280;2783;48.730;8.006;2023-02-28T01:57:00;100898.25;;;1.27;69.09
5522;BME280;2783;48.730;8.006;2023-02-28T01:59:37;100901.69;;;1.25;69.74
5522;BME280;2783;48.730;8.006;2023-02-28T02:02:05;100899.00;;;1.22;69.56
5522;BME280;2783;48.730;8.006;2023-02-28T02:04:37;100897.25;;;1.21;69.50
5522;BME280;2783;48.730;8.006;2023-02-28T02:07:04;100894.63;;;1.21;69.24
5522;BME280;2783;48.730;8.006;2023-02-28T02:09:30;100897.25;;;1.21;69.26
5522;BME280;2783;48.730;8.006;2023-02-28T02:11:55;100896.34;;;1.20;69.48
5522;BME280;2783;48.730;8.006;2023-02-28T02:35:03;100881.41;;;1.15;69.45
5522;BME280;2783;48.730;8.006;2023-02-28T02:37:41;100878.66;;;1.09;69.49
5522;BME280;2783;48.730;8.006;2023-02-28T02:43:10;100876.19;;;1.15;69.24
5522;BME280;2783;48.730;8.006;2023-02-28T02:45:44;100876.94;;;1.09;69.96
5522;BME280;2783;48.730;8.006;2023-02-28T02:48:12;100883.00;;;1.05;71.42
5522;BME280;2783;48.730;8.006;2023-02-28T02:51:00;100884.72;;;1.05;71.21
5522;BME280;2783;48.730;8.006;2023-02-28T02:53:27;100879.47;;;1.05;70.16
5522;BME280;2783;48.730;8.006;2023-02-28T02:55:54;100882.94;;;1.04;70.34
5522;BME280;2783;48.730;8.006;2023-02-28T02:58:22;100877.78;;;1.07;70.51
5522;BME280;2783;48.730;8.006;2023-02-28T03:00:53;100877.63;;;1.01;70.51
5522;BME280;2783;48.730;8.006;2023-02-28T03:03:19;100883.78;;;1.01;71.36
5522;BME280;2783;48.730;8.006;2023-02-28T03:05:54;100875.94;;;1.03;71.28
5522;BME280;2783;48.730;8.006;2023-02-28T03:08:20;100878.63;;;1.06;71.20
5522;BME280;2783;48.730;8.006;2023-02-28T03:10:46;100872.41;;;1.01;71.54
5522;BME280;2783;48.730;8.006;2023-02-28T03:16:07;100873.25;;;0.98;70.80
5522;BME280;2783;48.730;8.006;2023-02-28T03:23:48;100874.94;;;0.96;71.24
5522;BME280;2783;48.730;8.006;2023-02-28T03:26:22;100874.00;;;0.93;71.73
5522;BME280;2783;48.730;8.006;2023-02-28T03:29:03;100874.00;;;0.93;72.95
5522;BME280;2783;48.730;8.006;2023-02-28T03:31:32;100872.19;;;0.89;72.10
5522;BME280;2783;48.730;8.006;2023-02-28T03:34:01;100872.09;;;0.86;72.98
5522;BME280;2783;48.730;8.006;2023-02-28T03:36:29;100872.19;;;0.89;72.63
5522;BME280;2783;48.730;8.006;2023-02-28T03:39:00;100866.81;;;0.83;72.59
5522;BME280;2783;48.730;8.006;2023-02-28T03:41:38;100866.88;;;0.86;72.77
5522;BME280;2783;48.730;8.006;2023-02-28T03:44:09;100862.53;;;0.86;73.02
5522;BME280;2783;48.730;8.006;2023-02-28T03:46:40;100860.66;;;0.81;72.86
5522;BME280;2783;48.730;8.006;2023-02-28T03:49:17;100862.44;;;0.82;73.33
5522;BME280;2783;48.730;8.006;2023-02-28T03:51:42;100866.75;;;0.80;73.52
5522;BME280;2783;48.730;8.006;2023-02-28T03:54:12;100861.53;;;0.80;73.04
5522;BME280;2783;48.730;8.006;2023-02-28T03:56:58;100860.50;;;0.73;73.24
5522;BME280;2783;48.730;8.006;2023-02-28T03:59:30;100859.69;;;0.76;73.39
5522;BME280;2783;48.730;8.006;2023-02-28T04:01:57;100875.31;;;0.73;74.55
5522;BME280;2783;48.730;8.006;2023-02-28T04:04:23;100859.56;;;0.70;73.86
5522;BME280;2783;48.730;8.006;2023-02-28T04:06:51;100859.50;;;0.67;74.75
5522;BME280;2783;48.730;8.006;2023-02-28T04:09:18;100861.25;;;0.68;74.85
5522;BME280;2783;48.730;8.006;2023-02-28T04:11:44;100862.06;;;0.64;74.13
5522;BME280;2783;48.730;8.006;2023-02-28T04:14:10;100861.25;;;0.68;74.88
5522;BME280;2783;48.730;8.006;2023-02-28T04:16:37;100864.69;;;0.64;74.40
5522;BME280;2783;48.730;8.006;2023-02-28T04:19:03;100864.63;;;0.61;75.16
5522;BME280;2783;48.730;8.006;2023-02-28T04:21:52;100857.66;;;0.63;75.20
5522;BME280;2783;48.730;8.006;2023-02-28T04:24:17;100863.03;;;0.69;74.85
5522;BME280;2783;48.730;8.006;2023-02-28T04:26:43;100858.56;;;0.63;75.12
5522;BME280;2783;48.730;8.006;2023-02-28T04:29:10;100855.03;;;0.63;75.05
5522;BME280;2783;48.730;8.006;2023-02-28T04:31:36;100862.06;;;0.64;75.91
5522;BME280;2783;48.730;8.006;2023-02-28T04:34:01;100868.13;;;0.63;75.79
5522;BME280;2783;48.730;8.006;2023-02-28T04:36:27;100866.38;;;0.62;76.02
5522;BME280;2783;48.730;8.006;2023-02-28T04:38:53;100859.44;;;0.64;75.28
5522;BME280;2783;48.730;8.006;2023-02-28T04:41:18;100863.81;;;0.65;75.82
5522;BME280;2783;48.730;8.006;2023-02-28T04:43:44;100857.81;;;0.69;75.76
5522;BME280;2783;48.730;8.006;2023-02-28T04:46:09;100859.44;;;0.64;76.44
5522;BME280;2783;48.730;8.006;2023-02-28T04:48:38;100859.44;;;0.64;76.28
5522;BME280;2783;48.730;8.006;2023-02-28T04:51:04;100854.22;;;0.64;76.84
5522;BME280;2783;48.730;8.006;2023-02-28T04:53:30;100865.53;;;0.63;76.92
5522;BME280;2783;48.730;8.006;2023-02-28T04:55:56;100872.66;;;0.70;76.14
5522;BME280;2783;48.730;8.006;2023-02-28T04:58:21;100867.38;;;0.68;76.43
5522;BME280;2783;48.730;8.006;2023-02-28T05:00:48;100872.63;;;0.68;76.29
5522;BME280;2783;48.730;8.006;2023-02-28T05:03:14;100868.28;;;0.69;76.42
5522;BME280;2783;48.730;8.006;2023-02-28T05:05:39;100876.06;;;0.64;76.65
5522;BME280;2783;48.730;8.006;2023-02-28T05:08:04;100881.41;;;0.70;76.95
5522;BME280;2783;48.730;8.006;2023-02-28T05:10:30;100873.47;;;0.66;76.83
5522;BME280;2783;48.730;8.006;2023-02-28T05:12:55;100873.53;;;0.69;76.86
5522;BME280;2783;48.730;8.006;2023-02-28T05:15:21;100877.91;;;0.71;76.26
5522;BME280;2783;48.730;8.006;2023-02-28T05:17:46;100868.28;;;0.69;76.84
5522;BME280;2783;48.730;8.006;2023-02-28T05:20:11;100876.19;;;0.72;76.56
5522;BME280;2783;48.730;8.006;2023-02-28T05:22:38;100874.50;;;0.74;76.86
5522;BME280;2783;48.730;8.006;2023-02-28T05:25:04;100868.22;;;0.66;76.43
5522;BME280;2783;48.730;8.006;2023-02-28T05:27:32;100873.56;;;0.70;76.31
5522;BME280;2783;48.730;8.006;2023-02-28T05:29:58;100870.94;;;0.70;76.94
5522;BME280;2783;48.730;8.006;2023-02-28T05:32:24;100870.91;;;0.69;76.89
5522;BME280;2783;48.730;8.006;2023-02-28T05:34:49;100875.31;;;0.73;77.19
5522;BME280;2783;48.730;8.006;2023-02-28T05:37:14;100882.28;;;0.71;77.08
5522;BME280;2783;48.730;8.006;2023-02-28T05:39:40;100871.72;;;0.68;77.47
5522;BME280;2783;48.730;8.006;2023-02-28T05:42:06;100867.34;;;0.65;77.07
5522;BME280;2783;48.730;8.006;2023-02-28T05:44:31;100875.09;;;0.61;77.63
5522;BME280;2783;48.730;8.006;2023-02-28T05:46:57;100870.63;;;0.57;77.06
5522;BME280;2783;48.730;8.006;2023-02-28T05:49:22;100873.28;;;0.58;77.93
5522;BME280;2783;48.730;8.006;2023-02-28T05:51:47;100880.34;;;0.61;77.72
5522;BME280;2783;48.730;8.006;2023-02-28T05:54:13;100868.03;;;0.57;77.41
5522;BME280;2783;48.730;8.006;2023-02-28T05:56:38;100871.50;;;0.56;78.48
5522;BME280;2783;48.730;8.006;2023-02-28T05:59:09;100878.50;;;0.57;77.74
5522;BME280;2783;48.730;8.006;2023-02-28T06:01:35;100876.78;;;0.59;78.71
5522;BME280;2783;48.730;8.006;2023-02-28T06:04:01;100869.94;;;0.64;77.68
5522;BME280;2783;48.730;8.006;2023-02-28T06:06:27;100875.16;;;0.64;77.57
5522;BME280;2783;48.730;8.006;2023-02-28T06:08:53;100878.59;;;0.63;78.06
5522;BME280;2783;48.730;8.006;2023-02-28T06:11:19;100878.00;;;0.76;77.63
5522;BME280;2783;48.730;8.006;2023-02-28T06:13:45;100877.16;;;0.77;76.95
5522;BME280;2783;48.730;8.006;2023-02-28T06:16:10;100880.75;;;0.82;76.60
5522;BME280;2783;48.730;8.006;2023-02-28T06:18:36;100887.00;;;0.88;78.16
5522;BME280;2783;48.730;8.006;2023-02-28T06:21:01;100894.06;;;0.92;76.92
5522;BME280;2783;48.730;8.006;2023-02-28T06:23:27;100887.97;;;0.93;76.96
5522;BME280;2783;48.730;8.006;2023-02-28T06:25:52;100893.34;;;1.01;76.87
5522;BME280;2783;48.730;8.006;2023-02-28T06:28:18;100893.53;;;1.08;76.66
5522;BME280;2783;48.730;8.006;2023-02-28T06:30:43;100891.91;;;1.15;76.10
5522;BME280;2783;48.730;8.006;2023-02-28T06:33:09;100891.94;;;1.18;76.51
5522;BME280;2783;48.730;8.006;2023-02-28T06:35:34;100900.78;;;1.23;75.89
5522;BME280;2783;48.730;8.006;2023-02-28T06:38:00;100900.84;;;1.26;76.36
5522;BME280;2783;48.730;8.006;2023-02-28T06:40:25;100904.41;;;1.29;75.57
5522;BME280;2783;48.730;8.006;2023-02-28T06:42:50;100897.44;;;1.30;76.44
5522;BME280;2783;48.730;8.006;2023-02-28T06:45:15;100903.75;;;1.41;75.55
5522;BME280;2783;48.730;8.006;2023-02-28T06:47:41;100907.31;;;1.46;75.21
5522;BME280;2783;48.730;8.006;2023-02-28T06:50:08;100897.75;;;1.48;75.00
5522;BME280;2783;48.730;8.006;2023-02-28T06:52:34;100906.59;;;1.53;74.11
5522;BME280;2783;48.730;8.006;2023-02-28T06:55:01;100911.94;;;1.59;74.38
5522;BME280;2783;48.730;8.006;2023-02-28T06:57:30;100898.94;;;1.67;73.06
5522;BME280;2783;48.730;8.006;2023-02-28T06:59:59;100916.56;;;1.75;73.60
5522;BME280;2783;48.730;8.006;2023-02-28T07:02:24;100902.63;;;1.76;73.55
5522;BME280;2783;48.730;8.006;2023-02-28T07:04:50;100912.34;;;1.83;73.27
5522;BME280;2783;48.730;8.006;2023-02-28T07:07:15;100914.84;;;1.76;72.71
5522;BME280;2783;48.730;8.006;2023-02-28T07:09:40;100916.69;;;1.81;73.08
5522;BME280;2783;48.730;8.006;2023-02-28T07:12:06;100915.88;;;1.85;72.92
5522;BME280;2783;48.730;8.006;2023-02-28T07:14:31;100920.09;;;1.76;74.34
5522;BME280;2783;48.730;8.006;2023-02-28T07:16:56;100916.75;;;1.86;73.30
5522;BME280;2783;48.730;8.006;2023-02-28T07:19:22;100922.13;;;1.93;72.31
5522;BME280;2783;48.730;8.006;2023-02-28T07:21:47;100919.47;;;1.90;73.30
5522;BME280;2783;48.730;8.006;2023-02-28T07:24:12;100920.47;;;1.98;73.05
5522;BME280;2783;48.730;8.006;2023-02-28T07:26:40;100923.16;;;2.04;73.29
5522;BME280;2783;48.730;8.006;2023-02-28T07:29:05;100922.16;;;1.95;71.63
5522;BME280;2783;48.730;8.006;2023-02-28T07:31:31;100927.41;;;1.96;72.31
5522;BME280;2783;48.730;8.006;2023-02-28T07:33:56;100924.91;;;2.02;72.40
5522;BME280;2783;48.730;8.006;2023-02-28T07:36:21;100921.47;;;2.06;72.24
5522;BME280;2783;48.730;8.006;2023-02-28T07:38:47;100919.84;;;2.14;72.12
5522;BME280;2783;48.730;8.006;2023-02-28T07:41:18;100926.00;;;2.18;71.97
5522;BME280;2783;48.730;8.006;2023-02-28T07:43:44;100925.19;;;2.20;72.11
5522;BME280;2783;48.730;8.006;2023-02-28T07:46:10;100933.13;;;2.25;71.05
5522;BME280;2783;48.730;8.006;2023-02-28T07:48:36;100930.50;;;2.25;70.71
5522;BME280;2783;48.730;8.006;2023-02-28T07:51:02;100930.59;;;2.32;70.85
5522;BME280;2783;48.730;8.006;2023-02-28T07:53:27;100932.44;;;2.38;70.12
5522;BME280;2783;48.730;8.006;2023-02-28T07:55:56;100930.78;;;2.43;70.54
5522;BME280;2783;48.730;8.006;2023-02-28T07:58:22;100931.72;;;2.48;70.25
5522;BME280;2783;48.730;8.006;2023-02-28T08:00:47;100929.16;;;2.52;70.00
5522;BME280;2783;48.730;8.006;2023-02-28T08:03:13;100929.13;;;2.49;69.32
5522;BME280;2783;48.730;8.006;2023-02-28T08:05:39;100922.13;;;2.48;68.65
5522;BME280;2783;48.730;8.006;2023-02-28T08:08:05;100923.88;;;2.49;69.12
5522;BME280;2783;48.730;8.006;2023-02-28T08:10:30;100936.28;;;2.59;69.15
5522;BME280;2783;48.730;8.006;2023-02-28T08:12:55;100938.13;;;2.66;69.16
5522;BME280;2783;48.730;8.006;2023-02-28T08:15:20;100940.75;;;2.66;67.78
5522;BME280;2783;48.730;8.006;2023-02-28T08:17:46;100939.06;;;2.70;67.12
5522;BME280;2783;48.730;8.006;2023-02-28T08:20:11;100943.38;;;2.66;68.13
5522;BME280;2783;48.730;8.006;2023-02-28T08:22:36;100946.09;;;2.74;67.00
5522;BME280;2783;48.730;8.006;2023-02-28T08:25:02;100957.50;;;2.75;66.60
5522;BME280;2783;48.730;8.006;2023-02-28T08:27:27;100945.19;;;2.73;67.21
5522;BME280;2783;48.730;8.006;2023-02-28T08:29:52;100940.78;;;2.69;66.52
5522;BME280;2783;48.730;8.006;2023-02-28T08:32:18;100940.06;;;2.80;66.65
5522;BME280;2783;48.730;8.006;2023-02-28T08:34:43;100940.84;;;2.76;66.53
5522;BME280;2783;48.730;8.006;2023-02-28T08:37:08;100941.00;;;2.86;66.61
5522;BME280;2783;48.730;8.006;2023-02-28T08:39:37;100943.84;;;3.03;66.77
5522;BME280;2783;48.730;8.006;2023-02-28T08:42:02;100939.41;;;2.97;66.52
5522;BME280;2783;48.730;8.006;2023-02-28T08:44:28;100949.00;;;2.97;65.97
5522;BME280;2783;48.730;8.006;2023-02-28T08:46:53;100935.97;;;3.03;65.91
5522;BME280;2783;48.730;8.006;2023-02-28T08:49:18;100945.56;;;3.01;65.35
5522;BME280;2783;48.730;8.006;2023-02-28T08:51:44;100938.63;;;3.06;65.13
5522;BME280;2783;48.730;8.006;2023-02-28T08:54:09;100950.91;;;3.07;64.51
5522;BME280;2783;48.730;8.006;2023-02-28T08:56:37;100945.75;;;3.16;65.07
5522;BME280;2783;48.730;8.006;2023-02-28T08:59:03;100953.09;;;3.44;64.94
5522;BME280;2783;48.730;8.006;2023-02-28T09:01:28;100947.81;;;3.41;63.89
5522;BME280;2783;48.730;8.006;2023-02-28T09:03:54;100955.78;;;3.50;63.57
5522;BME280;2783;48.730;8.006;2023-02-28T09:06:20;100957.56;;;3.51;62.95
5522;BME280;2783;48.730;8.006;2023-02-28T09:08:45;100955.78;;;3.50;63.64
5522;BME280;2783;48.730;8.006;2023-02-28T09:11:11;100952.25;;;3.49;63.12
5522;BME280;2783;48.730;8.006;2023-02-28T09:13:37;100945.25;;;3.47;63.45
5522;BME280;2783;48.730;8.006;2023-02-28T09:16:04;100948.69;;;3.41;63.14
5522;BME280;2783;48.730;8.006;2023-02-28T09:18:29;100955.75;;;3.47;63.18
5522;BME280;2783;48.730;8.006;2023-02-28T09:20:55;100958.34;;;3.41;63.67
5522;BME280;2783;48.730;8.006;2023-02-28T09:23:20;100952.97;;;3.33;63.58
5522;BME280;2783;48.730;8.006;2023-02-28T09:25:46;100951.25;;;3.37;62.52
5522;BME280;2783;48.730;8.006;2023-02-28T09:28:12;100953.16;;;3.51;63.13
5522;BME280;2783;48.730;8.006;2023-02-28T09:30:37;100952.25;;;3.48;63.12
5522;BME280;2783;48.730;8.006;2023-02-28T09:33:02;100951.31;;;3.43;61.85
5522;BME280;2783;48.730;8.006;2023-02-28T09:35:28;100947.06;;;3.51;62.25
5522;BME280;2783;48.730;8.006;2023-02-28T09:37:53;100951.47;;;3.55;63.77
5522;BME280;2783;48.730;8.006;2023-02-28T09:40:19;100959.47;;;3.64;62.98
5522;BME280;2783;48.730;8.006;2023-02-28T09:42:47;100959.38;;;3.59;62.30
5522;BME280;2783;48.730;8.006;2023-02-28T09:45:31;100958.63;;;3.71;62.16
5522;BME280;2783;48.730;8.006;2023-02-28T09:48:10;100958.69;;;3.74;62.37
5522;BME280;2783;48.730;8.006;2023-02-28T09:53:06;100967.47;;;3.79;62.43
5522;BME280;2783;48.730;8.006;2023-02-28T09:55:37;100953.44;;;3.74;61.07
5522;BME280;2783;48.730;8.006;2023-02-28T09:58:04;100957.06;;;3.88;61.87
5522;BME280;2783;48.730;8.006;2023-02-28T10:00:32;100954.44;;;3.91;61.29
5522;BME280;2783;48.730;8.006;2023-02-28T10:06:16;100964.31;;;4.13;60.86
5522;BME280;2783;48.730;8.006;2023-02-28T10:08:16;100961.66;;;4.13;61.10
5522;BME280;2783;48.730;8.006;2023-02-28T10:10:46;100958.09;;;4.03;60.52
5522;BME280;2783;48.730;8.006;2023-02-28T10:13:13;100961.53;;;3.96;61.48
5522;BME280;2783;48.730;8.006;2023-02-28T10:15:40;100962.44;;;4.00;60.88
5522;BME280;2783;48.730;8.006;2023-02-28T10:18:16;100966.06;;;4.17;60.31
5522;BME280;2783;48.730;8.006;2023-02-28T10:20:44;100957.47;;;4.36;59.74
5522;BME280;2783;48.730;8.006;2023-02-28T10:25:41;100968.81;;;4.29;60.11
5522;BME280;2783;48.730;8.006;2023-02-28T10:28:13;100972.34;;;4.31;59.76
5522;BME280;2783;48.730;8.006;2023-02-28T10:30:40;100971.44;;;4.26;58.70
5522;BME280;2783;48.730;8.006;2023-02-28T10:33:08;100969.66;;;4.25;58.51
5522;BME280;2783;48.730;8.006;2023-02-28T10:35:40;100965.38;;;4.38;59.37
5522;BME280;2783;48.730;8.006;2023-02-28T10:38:08;100968.13;;;4.51;59.14
5522;BME280;2783;48.730;8.006;2023-02-28T10:40:37;100974.19;;;4.40;58.55
5522;BME280;2783;48.730;8.006;2023-02-28T10:45:28;100969.88;;;4.52;58.71
5522;BME280;2783;48.730;8.006;2023-02-28T10:48:03;100975.16;;;4.55;57.60
5522;BME280;2783;48.730;8.006;2023-02-28T10:55:35;100978.88;;;4.89;57.58
5522;BME280;2783;48.730;8.006;2023-02-28T10:58:00;100971.88;;;4.92;56.86
5522;BME280;2783;48.730;8.006;2023-02-28T11:00:26;100968.28;;;4.81;56.30
5522;BME280;2783;48.730;8.006;2023-02-28T11:02:56;100974.41;;;4.76;56.61
5522;BME280;2783;48.730;8.006;2023-02-28T11:05:32;100977.88;;;4.70;56.13
5522;BME280;2783;48.730;8.006;2023-02-28T11:08:12;100970.91;;;4.77;56.71
5522;BME280;2783;48.730;8.006;2023-02-28T11:10:38;100975.34;;;4.82;56.25
5522;BME280;2783;48.730;8.006;2023-02-28T11:13:04;100966.47;;;4.71;55.97
5522;BME280;2783;48.730;8.006;2023-02-28T11:15:31;100971.91;;;4.98;55.80
5522;BME280;2783;48.730;8.006;2023-02-28T11:20:23;100968.44;;;5.08;55.03
5522;BME280;2783;48.730;8.006;2023-02-28T11:22:49;100968.44;;;5.05;54.48
5522;BME280;2783;48.730;8.006;2023-02-28T11:25:32;100969.28;;;5.06;54.07
5522;BME280;2783;48.730;8.006;2023-02-28T11:27:59;100964.97;;;5.24;55.03
5522;BME280;2783;48.730;8.006;2023-02-28T11:30:36;100972.09;;;5.47;54.96
5522;BME280;2783;48.730;8.006;2023-02-28T11:35:45;100959.84;;;5.82;53.01
5522;BME280;2783;48.730;8.006;2023-02-28T11:38:13;100959.06;;;5.96;53.49
5522;BME280;2783;48.730;8.006;2023-02-28T12:04:03;100949.31;;;6.60;50.89
5522;BME280;2783;48.730;8.006;2023-02-28T12:22:15;100942.19;;;6.98;50.08
5522;BME280;2783;48.730;8.006;2023-02-28T12:27:10;100932.31;;;7.33;47.91
5522;BME280;2783;48.730;8.006;2023-02-28T12:29:43;100931.34;;;7.52;47.82
5522;BME280;2783;48.730;8.006;2023-02-28T12:32:32;100931.16;;;7.78;47.34
5522;BME280;2783;48.730;8.006;2023-02-28T12:35:04;100920.56;;;7.84;46.72
5522;BME280;2783;48.730;8.006;2023-02-28T12:40:12;100923.50;;;9.29;44.50
5522;BME280;2783;48.730;8.006;2023-02-28T12:42:42;100923.09;;;9.60;43.49
5522;BME280;2783;48.730;8.006;2023-02-28T12:47:39;100912.97;;;10.39;42.60
5522;BME280;2783;48.730;8.006;2023-02-28T12:50:08;100910.63;;;10.22;41.33
5522;BME280;2783;48.730;8.006;2023-02-28T12:52:56;100909.94;;;10.08;41.74
5522;BME280;2783;48.730;8.006;2023-02-28T12:58:10;100897.66;;;10.97;39.94
5522;BME280;2783;48.730;8.006;2023-02-28T13:00:43;100885.97;;;12.20;39.53
5522;BME280;2783;48.730;8.006;2023-02-28T13:10:44;100895.78;;;11.45;39.63
5522;BME280;2783;48.730;8.006;2023-02-28T13:13:14;100881.13;;;11.24;39.53
5522;BME280;2783;48.730;8.006;2023-02-28T13:15:40;100872.03;;;10.49;40.11
5522;BME280;2783;48.730;8.006;2023-02-28T13:18:56;100875.69;;;10.42;41.15
5522;BME280;2783;48.730;8.006;2023-02-28T13:21:22;100888.94;;;10.89;40.46
5522;BME280;2783;48.730;8.006;2023-02-28T13:26:20;100873.34;;;11.53;38.08
5522;BME280;2783;48.730;8.006;2023-02-28T13:31:14;100871.09;;;12.45;37.91
5522;BME280;2783;48.730;8.006;2023-02-28T13:36:28;100879.38;;;12.67;37.35
5522;BME280;2783;48.730;8.006;2023-02-28T13:46:24;100869.72;;;12.63;36.35
5522;BME280;2783;48.730;8.006;2023-02-28T13:48:49;100878.56;;;12.65;37.44
5522;BME280;2783;48.730;8.006;2023-02-28T13:59:43;100863.81;;;13.44;35.57
5522;BME280;2783;48.730;8.006;2023-02-28T14:02:17;100876.16;;;14.03;37.36
5522;BME280;2783;48.730;8.006;2023-02-28T14:04:54;100868.31;;;13.42;35.38
5522;BME280;2783;48.730;8.006;2023-02-28T14:07:26;100870.34;;;13.04;36.54
5522;BME280;2783;48.730;8.006;2023-02-28T14:10:03;100869.19;;;13.13;36.59
5522;BME280;2783;48.730;8.006;2023-02-28T14:17:58;100860.06;;;13.20;36.83
5522;BME280;2783;48.730;8.006;2023-02-28T14:20:26;100861.41;;;13.35;36.64
5522;BME280;2783;48.730;8.006;2023-02-28T14:23:16;100858.28;;;12.24;36.84
5522;BME280;2783;48.730;8.006;2023-02-28T14:28:41;100857.81;;;11.34;39.19
5522;BME280;2783;48.730;8.006;2023-02-28T14:36:16;100856.06;;;9.97;41.76
5522;BME280;2783;48.730;8.006;2023-02-28T14:38:45;100846.72;;;9.74;42.49
5522;BME280;2783;48.730;8.006;2023-02-28T14:41:16;100849.13;;;9.31;43.19
5522;BME280;2783;48.730;8.006;2023-02-28T14:46:37;100853.22;;;8.92;44.29
5522;BME280;2783;48.730;8.006;2023-02-28T14:49:04;100844.47;;;8.86;45.05
5522;BME280;2783;48.730;8.006;2023-02-28T14:51:29;100856.16;;;8.67;45.23
5522;BME280;2783;48.730;8.006;2023-02-28T14:53:58;100851.88;;;8.55;45.02
5522;BME280;2783;48.730;8.006;2023-02-28T14:56:26;100849.50;;;8.31;45.42
5522;BME280;2783;48.730;8.006;2023-02-28T14:58:56;100851.22;;;8.37;45.92
5522;BME280;2783;48.730;8.006;2023-02-28T15:01:22;100847.66;;;8.38;46.38
5522;BME280;2783;48.730;8.006;2023-02-28T15:03:48;100853.81;;;8.41;46.87
5522;BME280;2783;48.730;8.006;2023-02-28T15:08:38;100857.66;;;8.09;46.04
5522;BME280;2783;48.730;8.006;2023-02-28T15:11:05;100842.63;;;8.09;45.99
5522;BME280;2783;48.730;8.006;2023-02-28T15:13:40;100849.72;;;8.05;45.94
5522;BME280;2783;48.730;8.006;2023-02-28T15:21:18;100845.44;;;7.91;46.92
5522;BME280;2783;48.730;8.006;2023-02-28T15:23:46;100840.13;;;7.92;47.16
5522;BME280;2783;48.730;8.006;2023-02-28T15:26:16;100845.41;;;7.97;47.41
5522;BME280;2783;48.730;8.006;2023-02-28T15:28:42;100842.78;;;7.89;47.90
5522;BME280;2783;48.730;8.006;2023-02-28T15:31:19;100843.75;;;7.84;48.38
5522;BME280;2783;48.730;8.006;2023-02-28T15:33:55;100839.44;;;7.69;47.63
5522;BME280;2783;48.730;8.006;2023-02-28T15:36:23;100840.38;;;7.62;48.00
5522;BME280;2783;48.730;8.006;2023-02-28T15:38:50;100844.84;;;7.57;48.64
5522;BME280;2783;48.730;8.006;2023-02-28T15:41:23;100850.97;;;7.64;48.88
5522;BME280;2783;48.730;8.006;2023-02-28T15:43:49;100845.75;;;7.52;49.57
5522;BME280;2783;48.730;8.006;2023-02-28T15:46:34;100852.84;;;7.47;48.66
5522;BME280;2783;48.730;8.006;2023-02-28T15:48:59;100851.97;;;7.45;49.06
5522;BME280;2783;48.730;8.006;2023-02-28T15:51:30;100861.66;;;7.47;49.85
5522;BME280;2783;48.730;8.006;2023-02-28T15:58:46;100860.81;;;7.42;50.01
5522;BME280;2783;48.730;8.006;2023-02-28T16:01:20;100849.44;;;7.33;49.07
5522;BME280;2783;48.730;8.006;2023-02-28T16:03:48;100852.09;;;7.31;50.10
5522;BME280;2783;48.730;8.006;2023-02-28T16:06:35;100845.06;;;7.24;50.28